createdAt,value
2023-04-20T00:05:33.143Z,14.70
2023-04-20T00:15:56.074Z,11.45
2023-04-20T00:26:18.201Z,9.93
2023-04-20T00:36:46.477Z,10.23
2023-04-20T00:47:08.346Z,10.05
2023-04-20T00:57:32.060Z,12.73
2023-04-20T01:07:55.829Z,11.50
2023-04-20T01:18:18.992Z,9.82
2023-04-20T01:28:41.781Z,12.88
2023-04-20T01:39:03.276Z,10.43
2023-04-20T01:49:26.633Z,11.73
2023-04-20T01:59:48.058Z,11.48
2023-04-20T02:10:12.133Z,8.98
2023-04-20T02:20:33.975Z,10.38
2023-04-20T02:30:56.814Z,11.73
2023-04-20T02:41:18.407Z,11.55
2023-04-20T02:51:41.773Z,11.55
2023-04-20T03:02:03.728Z,12.07
2023-04-20T03:12:27.215Z,12.60
2023-04-20T03:23:20.291Z,14.25
2023-04-20T03:33:42.934Z,11.88
2023-04-20T03:44:06.938Z,12.60
2023-04-20T03:54:29.728Z,13.88
2023-04-20T04:04:51.706Z,11.57
2023-04-20T04:15:20.235Z,13.57
2023-04-20T04:25:48.532Z,14.25
2023-04-20T04:36:15.153Z,12.68
2023-04-20T04:46:37.056Z,15.52
2023-04-20T04:57:00.062Z,14.98
2023-04-20T05:07:22.101Z,15.30
2023-04-20T05:17:44.962Z,14.70
2023-04-20T05:28:06.849Z,15.82
2023-04-20T05:38:29.611Z,17.10
2023-04-20T05:48:51.340Z,15.95
2023-04-20T05:59:14.367Z,16.98
2023-04-20T06:09:35.795Z,16.15
2023-04-20T06:19:58.959Z,15.57
2023-04-20T06:30:21.516Z,16.55
2023-04-20T06:40:44.406Z,15.27
2023-04-20T06:51:05.920Z,15.93
2023-04-20T07:01:28.757Z,15.30
2023-04-20T07:11:50.661Z,13.45
2023-04-20T07:22:13.435Z,13.18
2023-04-20T07:32:35.244Z,12.45
2023-04-20T07:42:58.382Z,11.48
2023-04-20T07:53:19.674Z,13.43
2023-04-20T08:03:42.591Z,10.90
2023-04-20T08:14:05.741Z,11.25
2023-04-20T08:24:28.395Z,10.18
2023-04-20T08:34:51.220Z,8.27
2023-04-20T08:45:14.219Z,9.35
2023-04-20T08:55:35.571Z,10.93
2023-04-20T09:05:58.247Z,10.80
2023-04-20T09:16:19.997Z,11.13
2023-04-20T09:26:43.142Z,12.07
2023-04-20T09:37:06.845Z,12.13
2023-04-20T09:47:30.919Z,12.50
2023-04-20T09:57:53.471Z,12.13
2023-04-20T10:08:16.193Z,9.48
2023-04-20T10:18:39.839Z,9.82
2023-04-20T10:29:02.919Z,8.77
2023-04-20T10:39:26.052Z,8.85
2023-04-20T10:49:49.183Z,8.00
2023-04-20T11:00:18.810Z,9.18
2023-04-20T11:10:43.031Z,8.20
2023-04-20T11:21:05.657Z,8.95
2023-04-20T11:31:29.145Z,10.55
2023-04-20T11:41:51.193Z,11.10
2023-04-20T11:52:13.978Z,11.60
2023-04-20T12:02:35.713Z,12.10
2023-04-20T12:12:59.946Z,12.57
2023-04-20T12:23:21.386Z,13.88
2023-04-20T12:33:44.548Z,13.45
2023-04-20T12:44:07.674Z,12.48
2023-04-20T12:54:32.330Z,10.97
2023-04-20T13:04:54.112Z,8.80
2023-04-20T13:15:31.804Z,10.57
2023-04-20T13:26:01.606Z,10.13
2023-04-20T13:36:29.699Z,9.80
2023-04-20T13:46:51.197Z,7.93
2023-04-20T13:57:14.022Z,9.02
2023-04-20T14:07:35.855Z,9.85
2023-04-20T14:18:00.207Z,9.82
2023-04-20T14:28:22.112Z,8.57
2023-04-20T14:38:44.804Z,8.20
2023-04-20T14:49:08.547Z,8.18
2023-04-20T14:59:33.690Z,7.20
2023-04-20T15:09:55.486Z,6.75
2023-04-20T15:20:18.320Z,7.45
2023-04-20T15:30:40.262Z,6.43
2023-04-20T15:41:02.944Z,6.57
2023-04-20T15:51:24.845Z,6.60
2023-04-20T16:01:48.909Z,6.20
2023-04-20T16:12:10.826Z,7.10
2023-04-20T16:22:33.831Z,6.20
2023-04-20T16:32:55.739Z,5.75
2023-04-20T16:43:19.127Z,5.63
2023-04-20T16:53:41.107Z,5.50
2023-04-20T17:04:05.376Z,6.32
2023-04-20T17:14:27.442Z,6.80
2023-04-20T17:24:50.561Z,6.60
2023-04-20T17:35:12.203Z,7.28
2023-04-20T17:45:35.449Z,6.55
2023-04-20T17:55:57.406Z,7.45
2023-04-20T18:06:20.581Z,7.18
2023-04-20T18:16:42.223Z,7.65
2023-04-20T18:27:05.015Z,8.15
2023-04-20T18:37:26.811Z,8.63
2023-04-20T18:47:49.999Z,8.32
2023-04-20T18:58:11.952Z,8.95
2023-04-20T19:08:35.303Z,7.60
2023-04-20T19:18:56.933Z,7.78
2023-04-20T19:29:20.033Z,8.13
2023-04-20T19:39:45.372Z,7.47
2023-04-20T19:50:09.533Z,8.23
2023-04-20T20:00:33.116Z,7.68
2023-04-20T20:10:56.420Z,8.07
2023-04-20T20:21:18.086Z,7.95
2023-04-20T20:31:43.785Z,7.95
2023-04-20T20:42:07.756Z,6.93
2023-04-20T20:52:32.016Z,7.77
2023-04-20T21:02:53.475Z,7.55
2023-04-20T21:13:18.855Z,7.53
2023-04-20T21:23:40.509Z,7.57
2023-04-20T21:34:03.255Z,7.95
2023-04-20T21:44:24.662Z,7.60
2023-04-20T21:54:47.396Z,6.47
2023-04-20T22:05:09.614Z,6.55
2023-04-20T22:15:32.412Z,7.38
2023-04-20T22:25:54.241Z,6.63
2023-04-20T22:36:17.356Z,7.15
2023-04-20T22:46:38.602Z,6.25
2023-04-20T22:57:02.031Z,7.60
2023-04-20T23:07:23.638Z,6.10
2023-04-20T23:17:46.768Z,5.32
2023-04-20T23:28:08.610Z,6.57
2023-04-20T23:38:31.259Z,5.30
2023-04-20T23:48:52.731Z,7.50
2023-04-20T23:59:15.436Z,6.20
